createdAt,value
2022-08-07T00:00:35.676Z,61.9
2022-08-07T00:05:37.044Z,61.7
2022-08-07T00:15:37.941Z,59.3
2022-08-07T00:25:37.458Z,59.9
2022-08-07T00:35:36.706Z,59.8
2022-08-07T00:40:39.738Z,59.7
2022-08-07T00:45:35.725Z,59
2022-08-07T00:56:03.431Z,58.8
2022-08-07T01:05:36.581Z,58.1
2022-08-07T01:20:35.723Z,58.8
2022-08-07T01:30:35.713Z,59
2022-08-07T01:35:53.806Z,58.9
2022-08-07T01:45:37.211Z,58.7
2022-08-07T01:55:35.744Z,57.4
2022-08-07T02:05:47.532Z,57.4
2022-08-07T02:10:35.755Z,58.1
2022-08-07T02:20:35.763Z,57.2
2022-08-07T02:26:10.465Z,57.1
2022-08-07T02:40:35.803Z,56.7
2022-08-07T02:45:58.527Z,56.8
2022-08-07T02:50:35.772Z,56.8
2022-08-07T02:56:03.128Z,56.7
2022-08-07T03:05:37.132Z,56.4
2022-08-07T03:10:35.767Z,56.2
2022-08-07T03:20:35.786Z,56.2
2022-08-07T03:30:35.762Z,55.8
2022-08-07T03:35:43.979Z,55.8
2022-08-07T03:40:36.443Z,55.7
2022-08-07T03:45:39.830Z,55.6
2022-08-07T04:00:36.558Z,55.4
2022-08-07T04:05:39.758Z,55.6
2022-08-07T04:15:35.793Z,55.8
2022-08-07T04:25:39.184Z,55
2022-08-07T04:30:55.315Z,55
2022-08-07T04:40:35.815Z,55
2022-08-07T04:45:57.543Z,55.7
2022-08-07T04:58:15.942Z,55.2
2022-08-07T05:00:36.102Z,55.1
2022-08-07T05:26:11.168Z,55.5
2022-08-07T05:30:35.825Z,55.5
2022-08-07T05:35:41.693Z,55.5
2022-08-07T05:45:46.477Z,55.8
2022-08-07T05:56:03.751Z,55.9
2022-08-07T06:05:35.865Z,56.8
2022-08-07T06:15:41.965Z,55.8
2022-08-07T06:20:49.589Z,55.8
2022-08-07T06:25:36.171Z,56.3
2022-08-07T06:40:35.973Z,57.1
2022-08-07T06:50:36.065Z,57.5
2022-08-07T07:00:35.884Z,56.4
2022-08-07T07:10:35.873Z,56.6
2022-08-07T07:15:37.734Z,56.4
2022-08-07T07:26:33.289Z,57.1
2022-08-07T07:30:38.299Z,57.5
2022-08-07T07:40:35.901Z,57.5
2022-08-07T08:00:35.905Z,59.3
2022-08-07T08:10:38.884Z,59.1
2022-08-07T08:15:57.477Z,58
2022-08-07T08:20:36.499Z,58.9
2022-08-07T08:30:42.627Z,60.3
2022-08-07T08:35:39.341Z,57.7
2022-08-07T08:45:41.861Z,59.3
2022-08-07T08:55:54.993Z,59
2022-08-07T09:20:37.120Z,59.5
2022-08-07T09:30:35.957Z,60.2
2022-08-07T09:40:35.961Z,60.3
2022-08-07T09:50:35.951Z,60.7
2022-08-07T10:00:35.920Z,60.3
2022-08-07T10:06:00.636Z,60.3
2022-08-07T10:11:00.218Z,60.3
2022-08-07T10:20:35.931Z,60.2
2022-08-07T10:40:35.970Z,61.3
2022-08-07T10:50:35.950Z,60.8
2022-08-07T11:00:36.588Z,60.7
2022-08-07T11:10:37.387Z,61.2
2022-08-07T11:15:35.984Z,60.9
2022-08-07T11:25:47.862Z,61.8
2022-08-07T11:35:35.987Z,61.8
2022-08-07T11:56:15.518Z,62.4
2022-08-07T12:05:47.067Z,62.7
2022-08-07T12:16:05.591Z,63.2
2022-08-07T12:26:03.131Z,64.2
2022-08-07T12:35:36.118Z,64.6
2022-08-07T12:40:47.708Z,64.8
2022-08-07T12:45:36.006Z,64.7
2022-08-07T12:50:40.319Z,65
2022-08-07T13:15:36.000Z,64.7
2022-08-07T13:25:36.017Z,63.6
2022-08-07T13:36:00.788Z,64.5
2022-08-07T13:46:11.454Z,64.2
2022-08-07T13:50:44.980Z,64.6
2022-08-07T14:00:39.478Z,65.6
2022-08-07T14:10:41.930Z,65.4
2022-08-07T14:15:36.197Z,64.7
2022-08-07T14:35:44.727Z,64.8
2022-08-07T14:40:36.143Z,65.3
2022-08-07T14:55:55.672Z,65.7
2022-08-07T15:05:36.039Z,64.7
2022-08-07T15:10:36.042Z,64.2
2022-08-07T15:20:55.321Z,64.5
2022-08-07T15:30:36.103Z,64.8
2022-08-07T15:36:00.867Z,64.3
2022-08-07T15:56:02.447Z,64.9
2022-08-07T16:00:36.102Z,64.6
2022-08-07T16:10:36.069Z,65.2
2022-08-07T16:15:55.030Z,65.7
2022-08-07T16:20:36.868Z,65.4
2022-08-07T16:30:36.099Z,65.6
2022-08-07T16:40:36.087Z,66.4
2022-08-07T16:46:47.379Z,66.2
2022-08-07T16:50:41.909Z,66.4
2022-08-07T17:15:44.377Z,66.7
2022-08-07T17:25:47.859Z,67.1
2022-08-07T17:30:36.122Z,66.7
2022-08-07T17:40:36.158Z,66.9
2022-08-07T17:45:36.120Z,67
2022-08-07T17:50:36.137Z,66.7
2022-08-07T18:00:48.955Z,66.8
2022-08-07T18:10:36.110Z,67.2
2022-08-07T18:15:36.140Z,67.2
2022-08-07T18:35:51.679Z,67.8
2022-08-07T18:40:42.517Z,67.3
2022-08-07T18:50:45.671Z,68.1
2022-08-07T18:55:40.662Z,67.9
2022-08-07T19:00:36.153Z,68.1
2022-08-07T19:10:51.404Z,68.4
2022-08-07T19:20:36.171Z,68.4
2022-08-07T19:31:03.014Z,67.3
2022-08-07T19:35:36.151Z,66.9
2022-08-07T19:50:43.128Z,68.1
2022-08-07T19:55:57.750Z,67.6
2022-08-07T20:05:59.600Z,68
2022-08-07T20:15:37.090Z,67.1
2022-08-07T20:25:40.063Z,66.9
2022-08-07T20:35:36.498Z,67.3
2022-08-07T20:40:36.259Z,67.2
2022-08-07T20:46:27.397Z,66.9
2022-08-07T20:50:36.160Z,66.7
2022-08-07T21:10:36.186Z,65.6
2022-08-07T21:20:36.145Z,65
2022-08-07T21:25:39.292Z,64.9
2022-08-07T21:36:05.203Z,64.6
2022-08-07T21:46:09.225Z,65
2022-08-07T21:55:36.195Z,64.1
2022-08-07T22:05:45.509Z,63.6
2022-08-07T22:30:36.174Z,62.8
2022-08-07T22:40:36.168Z,62.4
2022-08-07T22:50:36.172Z,61.5
2022-08-07T22:55:36.178Z,61.1
2022-08-07T23:06:08.709Z,60.8
2022-08-07T23:16:06.245Z,61.3
2022-08-07T23:20:40.763Z,61.3
2022-08-07T23:46:03.120Z,60.2
2022-08-07T23:55:52.270Z,60.4
